sensor_id;sensor_type;location;lat;lon;timestamp;pressure;altitude;pressure_sealevel;temperature;humidity
1371;BME280;14306;49.942;11.570;2022-07-06T00:00:31;97969.97;;;18.48;50.59
1371;BME280;14306;49.942;11.570;2022-07-06T00:02:59;97971.78;;;18.44;51.12
1371;BME280;14306;49.942;11.570;2022-07-06T00:05:27;97964.91;;;18.38;51.10
1371;BME280;14306;49.942;11.570;2022-07-06T00:07:56;97968.47;;;18.38;51.07
1371;BME280;14306;49.942;11.570;2022-07-06T00:10:24;97977.09;;;18.28;51.04
1371;BME280;14306;49.942;11.570;2022-07-06T00:12:52;97971.72;;;18.20;51.47
1371;BME280;14306;49.942;11.570;2022-07-06T00:15:20;97972.25;;;18.13;51.44
1371;BME280;14306;49.942;11.570;2022-07-06T00:17:48;97976.28;;;18.16;51.42
1371;BME280;14306;49.942;11.570;2022-07-06T00:20:16;97981.97;;;18.11;51.63
1371;BME280;14306;49.942;11.570;2022-07-06T00:22:45;97991.06;;;18.03;51.95
1371;BME280;14306;49.942;11.570;2022-07-06T00:25:14;97990.31;;;17.82;52.46
1371;BME280;14306;49.942;11.570;2022-07-06T00:27:42;97988.84;;;17.84;52.46
1371;BME280;14306;49.942;11.570;2022-07-06T00:30:10;97994.59;;;17.71;53.02
1371;BME280;14306;49.942;11.570;2022-07-06T00:32:38;97990.00;;;17.63;53.14
1371;BME280;14306;49.942;11.570;2022-07-06T00:35:07;97981.44;;;17.64;52.58
1371;BME280;14306;49.942;11.570;2022-07-06T00:37:34;97979.50;;;17.65;52.46
1371;BME280;14306;49.942;11.570;2022-07-06T00:40:03;97970.34;;;17.61;52.76
1371;BME280;14306;49.942;11.570;2022-07-06T00:42:40;97972.03;;;17.53;52.80
1371;BME280;14306;49.942;11.570;2022-07-06T00:45:09;97970.00;;;17.62;52.56
1371;BME280;14306;49.942;11.570;2022-07-06T00:47:38;97980.91;;;17.71;52.54
1371;BME280;14306;49.942;11.570;2022-07-06T00:50:08;97978.19;;;17.50;52.92
1371;BME280;14306;49.942;11.570;2022-07-06T00:52:46;97977.56;;;17.65;52.59
1371;BME280;14306;49.942;11.570;2022-07-06T00:55:18;97976.22;;;18.04;51.62
1371;BME280;14306;49.942;11.570;2022-07-06T00:57:48;97984.81;;;18.35;50.54
1371;BME280;14306;49.942;11.570;2022-07-06T01:00:18;97988.84;;;18.49;49.92
1371;BME280;14306;49.942;11.570;2022-07-06T01:02:47;97991.34;;;18.54;49.82
1371;BME280;14306;49.942;11.570;2022-07-06T01:05:15;97993.84;;;18.47;49.70
1371;BME280;14306;49.942;11.570;2022-07-06T01:07:45;97986.75;;;18.34;50.38
1371;BME280;14306;49.942;11.570;2022-07-06T01:10:14;97984.72;;;18.23;50.93
1371;BME280;14306;49.942;11.570;2022-07-06T01:12:43;97986.06;;;18.05;51.17
1371;BME280;14306;49.942;11.570;2022-07-06T01:15:15;97985.47;;;17.99;51.55
1371;BME280;14306;49.942;11.570;2022-07-06T01:17:44;97987.28;;;17.95;52.08
1371;BME280;14306;49.942;11.570;2022-07-06T01:20:14;97985.63;;;17.82;52.26
1371;BME280;14306;49.942;11.570;2022-07-06T01:22:42;97980.84;;;17.79;52.57
1371;BME280;14306;49.942;11.570;2022-07-06T01:25:11;97977.50;;;17.74;52.72
1371;BME280;14306;49.942;11.570;2022-07-06T01:27:40;97978.91;;;17.59;52.99
1371;BME280;14306;49.942;11.570;2022-07-06T01:30:10;97976.16;;;17.59;53.07
1371;BME280;14306;49.942;11.570;2022-07-06T01:32:40;97978.03;;;17.67;52.97
1371;BME280;14306;49.942;11.570;2022-07-06T01:35:11;97974.53;;;17.79;52.74
1371;BME280;14306;49.942;11.570;2022-07-06T01:37:41;97964.47;;;17.71;52.90
1371;BME280;14306;49.942;11.570;2022-07-06T01:40:11;97967.31;;;17.74;53.00
1371;BME280;14306;49.942;11.570;2022-07-06T01:42:40;97971.22;;;17.73;53.26
1371;BME280;14306;49.942;11.570;2022-07-06T01:45:09;97971.03;;;17.90;53.17
1371;BME280;14306;49.942;11.570;2022-07-06T01:47:37;97976.22;;;18.04;52.89
1371;BME280;14306;49.942;11.570;2022-07-06T01:50:07;97976.81;;;18.42;51.81
1371;BME280;14306;49.942;11.570;2022-07-06T01:52:35;97986.78;;;18.70;50.75
1371;BME280;14306;49.942;11.570;2022-07-06T01:55:05;97995.41;;;18.93;50.08
1371;BME280;14306;49.942;11.570;2022-07-06T01:57:33;97999.28;;;19.04;49.84
1371;BME280;14306;49.942;11.570;2022-07-06T02:00:03;98017.03;;;19.06;52.88
1371;BME280;14306;49.942;11.570;2022-07-06T02:02:33;98025.78;;;17.99;62.55
1371;BME280;14306;49.942;11.570;2022-07-06T02:05:02;98010.72;;;16.56;71.27
1371;BME280;14306;49.942;11.570;2022-07-06T02:07:29;98018.41;;;15.91;76.39
1371;BME280;14306;49.942;11.570;2022-07-06T02:09:58;98013.28;;;15.56;79.03
1371;BME280;14306;49.942;11.570;2022-07-06T02:12:27;97997.50;;;15.27;81.65
1371;BME280;14306;49.942;11.570;2022-07-06T02:14:55;97994.75;;;15.18;82.63
1371;BME280;14306;49.942;11.570;2022-07-06T02:17:23;97995.03;;;15.08;82.55
1371;BME280;14306;49.942;11.570;2022-07-06T02:19:51;97993.88;;;14.92;86.63
1371;BME280;14306;49.942;11.570;2022-07-06T02:22:19;97994.66;;;14.84;86.59
1371;BME280;14306;49.942;11.570;2022-07-06T02:24:47;97992.22;;;14.66;87.01
1371;BME280;14306;49.942;11.570;2022-07-06T02:27:15;97992.03;;;14.62;86.77
1371;BME280;14306;49.942;11.570;2022-07-06T02:29:45;98002.69;;;14.81;87.46
1371;BME280;14306;49.942;11.570;2022-07-06T02:32:12;97999.78;;;14.77;87.97
1371;BME280;14306;49.942;11.570;2022-07-06T02:34:41;97996.38;;;14.72;88.15
1371;BME280;14306;49.942;11.570;2022-07-06T02:37:09;97997.53;;;14.71;88.03
1371;BME280;14306;49.942;11.570;2022-07-06T02:39:38;97999.28;;;14.67;89.88
1371;BME280;14306;49.942;11.570;2022-07-06T02:42:06;98016.75;;;14.66;89.62
1371;BME280;14306;49.942;11.570;2022-07-06T02:44:34;98007.19;;;14.77;89.34
1371;BME280;14306;49.942;11.570;2022-07-06T02:47:03;98002.03;;;14.84;89.79
1371;BME280;14306;49.942;11.570;2022-07-06T02:49:31;98003.66;;;14.85;90.21
1371;BME280;14306;49.942;11.570;2022-07-06T02:51:59;98011.03;;;14.84;90.53
1371;BME280;14306;49.942;11.570;2022-07-06T02:54:27;98000.09;;;14.67;91.26
1371;BME280;14306;49.942;11.570;2022-07-06T02:56:57;97997.66;;;14.66;91.44
1371;BME280;14306;49.942;11.570;2022-07-06T02:59:25;98011.41;;;14.52;91.78
1371;BME280;14306;49.942;11.570;2022-07-06T03:01:53;98002.78;;;14.59;92.40
1371;BME280;14306;49.942;11.570;2022-07-06T03:04:22;98014.00;;;14.57;93.03
1371;BME280;14306;49.942;11.570;2022-07-06T03:06:51;98014.34;;;14.64;94.06
1371;BME280;14306;49.942;11.570;2022-07-06T03:09:18;98019.59;;;14.61;93.41
1371;BME280;14306;49.942;11.570;2022-07-06T03:11:47;98019.38;;;14.49;93.97
1371;BME280;14306;49.942;11.570;2022-07-06T03:14:14;98011.97;;;14.41;94.30
1371;BME280;14306;49.942;11.570;2022-07-06T03:16:42;98012.59;;;14.29;94.70
1371;BME280;14306;49.942;11.570;2022-07-06T03:19:16;98009.25;;;14.19;96.78
1371;BME280;14306;49.942;11.570;2022-07-06T03:21:45;98009.34;;;14.05;96.45
1371;BME280;14306;49.942;11.570;2022-07-06T03:24:14;98011.03;;;13.93;96.51
1371;BME280;14306;49.942;11.570;2022-07-06T03:26:41;98015.38;;;13.94;97.27
1371;BME280;14306;49.942;11.570;2022-07-06T03:29:09;98014.75;;;13.97;96.61
1371;BME280;14306;49.942;11.570;2022-07-06T03:31:37;98011.97;;;14.19;97.33
1371;BME280;14306;49.942;11.570;2022-07-06T03:34:05;98014.44;;;14.51;97.11
1371;BME280;14306;49.942;11.570;2022-07-06T03:36:34;98003.00;;;14.79;96.04
1371;BME280;14306;49.942;11.570;2022-07-06T03:39:06;98018.63;;;14.96;94.81
1371;BME280;14306;49.942;11.570;2022-07-06T03:41:34;98008.09;;;15.28;95.42
1371;BME280;14306;49.942;11.570;2022-07-06T03:44:02;98015.06;;;15.77;94.41
1371;BME280;14306;49.942;11.570;2022-07-06T03:46:30;98008.09;;;16.05;92.42
1371;BME280;14306;49.942;11.570;2022-07-06T03:48:59;98003.81;;;16.59;91.89
1371;BME280;14306;49.942;11.570;2022-07-06T03:51:27;97998.34;;;16.88;89.22
1371;BME280;14306;49.942;11.570;2022-07-06T03:53:55;98004.91;;;17.24;87.25
1371;BME280;14306;49.942;11.570;2022-07-06T03:56:25;98001.03;;;17.54;84.75
1371;BME280;14306;49.942;11.570;2022-07-06T03:58:56;98005.34;;;17.96;82.47
1371;BME280;14306;49.942;11.570;2022-07-06T04:01:25;97999.47;;;18.39;80.11
1371;BME280;14306;49.942;11.570;2022-07-06T04:03:53;98005.63;;;18.48;76.85
1371;BME280;14306;49.942;11.570;2022-07-06T04:06:22;97996.75;;;18.99;78.13
1371;BME280;14306;49.942;11.570;2022-07-06T04:08:50;97991.50;;;19.30;74.77
1371;BME280;14306;49.942;11.570;2022-07-06T04:11:18;97999.63;;;20.18;75.93
1371;BME280;14306;49.942;11.570;2022-07-06T04:13:47;97998.16;;;20.51;71.85
1371;BME280;14306;49.942;11.570;2022-07-06T04:16:17;98000.75;;;21.22;71.22
1371;BME280;14306;49.942;11.570;2022-07-06T04:18:45;97995.88;;;21.84;70.29
1371;BME280;14306;49.942;11.570;2022-07-06T04:21:13;97997.44;;;22.42;73.39
1371;BME280;14306;49.942;11.570;2022-07-06T04:23:41;97997.13;;;23.38;64.89
1371;BME280;14306;49.942;11.570;2022-07-06T04:26:10;97995.47;;;24.18;64.31
1371;BME280;14306;49.942;11.570;2022-07-06T04:28:38;98001.84;;;24.95;63.09
1371;BME280;14306;49.942;11.570;2022-07-06T04:31:08;98002.72;;;25.06;59.73
1371;BME280;14306;49.942;11.570;2022-07-06T04:33:36;98009.94;;;25.68;59.27
1371;BME280;14306;49.942;11.570;2022-07-06T04:36:04;98009.88;;;26.37;56.64
1371;BME280;14306;49.942;11.570;2022-07-06T04:38:32;98001.28;;;27.29;56.70
1371;BME280;14306;49.942;11.570;2022-07-06T04:41:01;98011.22;;;27.58;53.31
1371;BME280;14306;49.942;11.570;2022-07-06T04:43:29;98014.75;;;27.80;54.90
1371;BME280;14306;49.942;11.570;2022-07-06T04:45:57;98017.06;;;28.09;51.37
1371;BME280;14306;49.942;11.570;2022-07-06T04:48:28;98020.53;;;28.41;52.07
1371;BME280;14306;49.942;11.570;2022-07-06T04:50:57;98017.59;;;28.69;53.28
1371;BME280;14306;49.942;11.570;2022-07-06T04:53:26;98031.50;;;27.59;51.89
1371;BME280;14306;49.942;11.570;2022-07-06T04:55:54;98029.84;;;27.93;50.60
1371;BME280;14306;49.942;11.570;2022-07-06T04:58:22;98039.19;;;28.58;43.80
1371;BME280;14306;49.942;11.570;2022-07-06T05:00:52;98051.34;;;27.71;51.62
1371;BME280;14306;49.942;11.570;2022-07-06T05:03:21;98048.88;;;28.22;50.19
1371;BME280;14306;49.942;11.570;2022-07-06T05:05:50;98048.09;;;29.04;47.22
1371;BME280;14306;49.942;11.570;2022-07-06T05:08:20;98049.09;;;28.66;43.53
1371;BME280;14306;49.942;11.570;2022-07-06T05:10:49;98055.31;;;27.74;45.69
1371;BME280;14306;49.942;11.570;2022-07-06T05:13:18;98050.78;;;29.18;44.56
1371;BME280;14306;49.942;11.570;2022-07-06T05:15:46;98064.13;;;27.58;45.27
1371;BME280;14306;49.942;11.570;2022-07-06T05:18:14;98063.50;;;28.54;42.69
1371;BME280;14306;49.942;11.570;2022-07-06T05:20:43;98060.50;;;28.93;41.73
1371;BME280;14306;49.942;11.570;2022-07-06T05:23:14;98072.44;;;27.93;41.36
1371;BME280;14306;49.942;11.570;2022-07-06T05:25:42;98068.47;;;27.52;41.37
1371;BME280;14306;49.942;11.570;2022-07-06T05:28:10;98075.41;;;26.48;43.25
1371;BME280;14306;49.942;11.570;2022-07-06T05:30:44;98072.84;;;27.67;41.65
1371;BME280;14306;49.942;11.570;2022-07-06T05:33:12;98068.09;;;29.47;38.69
1371;BME280;14306;49.942;11.570;2022-07-06T05:35:42;98069.78;;;29.38;35.26
1371;BME280;14306;49.942;11.570;2022-07-06T05:38:23;98073.25;;;29.96;36.02
1371;BME280;14306;49.942;11.570;2022-07-06T05:40:56;98064.97;;;30.90;33.76
1371;BME280;14306;49.942;11.570;2022-07-06T05:43:28;98069.59;;;31.00;34.09
1371;BME280;14306;49.942;11.570;2022-07-06T05:45:59;98071.06;;;31.61;31.80
1371;BME280;14306;49.942;11.570;2022-07-06T05:48:27;98074.88;;;31.24;31.91
1371;BME280;14306;49.942;11.570;2022-07-06T06:03:46;98084.66;;;30.16;30.18
1371;BME280;14306;49.942;11.570;2022-07-06T06:06:14;98072.91;;;32.36;27.62
1371;BME280;14306;49.942;11.570;2022-07-06T06:08:42;98088.97;;;30.87;27.89
1371;BME280;14306;49.942;11.570;2022-07-06T06:11:10;98088.75;;;29.60;29.97
1371;BME280;14306;49.942;11.570;2022-07-06T06:13:41;98095.28;;;26.57;33.82
1371;BME280;14306;49.942;11.570;2022-07-06T06:16:09;98097.06;;;26.11;34.79
1371;BME280;14306;49.942;11.570;2022-07-06T06:18:37;98093.91;;;25.58;35.55
1371;BME280;14306;49.942;11.570;2022-07-06T06:21:09;98103.88;;;24.83;37.54
1371;BME280;14306;49.942;11.570;2022-07-06T06:23:38;98104.81;;;23.76;38.98
1371;BME280;14306;49.942;11.570;2022-07-06T06:26:06;98102.94;;;24.68;37.52
1371;BME280;14306;49.942;11.570;2022-07-06T06:28:34;98097.66;;;24.60;37.46
1371;BME280;14306;49.942;11.570;2022-07-06T06:31:03;98100.31;;;25.22;36.83
1371;BME280;14306;49.942;11.570;2022-07-06T06:33:34;98096.44;;;26.42;34.73
1371;BME280;14306;49.942;11.570;2022-07-06T06:36:02;98091.53;;;27.63;33.00
1371;BME280;14306;49.942;11.570;2022-07-06T06:38:32;98085.19;;;28.94;30.29
1371;BME280;14306;49.942;11.570;2022-07-06T06:41:01;98092.66;;;26.89;33.14
1371;BME280;14306;49.942;11.570;2022-07-06T06:43:29;98099.09;;;27.80;32.47
1371;BME280;14306;49.942;11.570;2022-07-06T06:45:58;98083.88;;;31.09;28.59
1371;BME280;14306;49.942;11.570;2022-07-06T06:48:26;98091.75;;;30.91;27.62
1371;BME280;14306;49.942;11.570;2022-07-06T06:50:54;98092.47;;;30.31;28.69
1371;BME280;14306;49.942;11.570;2022-07-06T06:53:23;98089.75;;;33.63;25.38
1371;BME280;14306;49.942;11.570;2022-07-06T06:55:52;98088.22;;;32.71;25.15
1371;BME280;14306;49.942;11.570;2022-07-06T06:58:20;98094.63;;;32.52;25.59
1371;BME280;14306;49.942;11.570;2022-07-06T07:00:53;98094.75;;;31.83;26.39
1371;BME280;14306;49.942;11.570;2022-07-06T07:03:22;98108.50;;;31.21;26.86
1371;BME280;14306;49.942;11.570;2022-07-06T07:05:50;98086.00;;;33.85;24.20
1371;BME280;14306;49.942;11.570;2022-07-06T07:08:19;98099.91;;;34.49;23.19
1371;BME280;14306;49.942;11.570;2022-07-06T07:10:47;98088.25;;;32.09;25.89
1371;BME280;14306;49.942;11.570;2022-07-06T07:13:17;98091.63;;;33.18;25.02
1371;BME280;14306;49.942;11.570;2022-07-06T07:15:45;98094.13;;;35.10;22.52
1371;BME280;14306;49.942;11.570;2022-07-06T07:18:13;98098.81;;;31.78;25.64
1371;BME280;14306;49.942;11.570;2022-07-06T07:20:42;98101.66;;;29.40;29.16
1371;BME280;14306;49.942;11.570;2022-07-06T07:23:10;98108.66;;;27.93;31.43
1371;BME280;14306;49.942;11.570;2022-07-06T07:25:40;98103.06;;;29.11;30.14
1371;BME280;14306;49.942;11.570;2022-07-06T07:28:08;98093.75;;;28.63;30.13
1371;BME280;14306;49.942;11.570;2022-07-06T07:30:37;98096.28;;;29.67;29.13
1371;BME280;14306;49.942;11.570;2022-07-06T07:33:06;98094.94;;;29.82;29.54
1371;BME280;14306;49.942;11.570;2022-07-06T07:35:35;98093.03;;;29.75;28.28
1371;BME280;14306;49.942;11.570;2022-07-06T07:38:03;98097.38;;;30.54;27.13
1371;BME280;14306;49.942;11.570;2022-07-06T07:40:30;98093.66;;;31.73;25.95
1371;BME280;14306;49.942;11.570;2022-07-06T07:43:00;98082.28;;;33.40;24.59
1371;BME280;14306;49.942;11.570;2022-07-06T07:45:28;98088.19;;;34.38;22.92
1371;BME280;14306;49.942;11.570;2022-07-06T07:47:57;98088.03;;;32.62;25.06
1371;BME280;14306;49.942;11.570;2022-07-06T07:50:25;98086.34;;;33.87;24.06
1371;BME280;14306;49.942;11.570;2022-07-06T07:52:56;98084.16;;;37.04;20.71
1371;BME280;14306;49.942;11.570;2022-07-06T07:55:24;98087.38;;;35.58;22.37
1371;BME280;14306;49.942;11.570;2022-07-06T07:58:07;98090.38;;;33.86;22.80
1371;BME280;14306;49.942;11.570;2022-07-06T08:00:35;98099.59;;;32.64;24.33
1371;BME280;14306;49.942;11.570;2022-07-06T08:03:05;98087.03;;;35.55;21.21
1371;BME280;14306;49.942;11.570;2022-07-06T08:05:33;98099.03;;;32.73;24.62
1371;BME280;14306;49.942;11.570;2022-07-06T08:08:01;98085.25;;;32.98;24.13
1371;BME280;14306;49.942;11.570;2022-07-06T08:10:29;98084.94;;;34.40;22.34
1371;BME280;14306;49.942;11.570;2022-07-06T08:13:17;98082.72;;;34.03;22.77
1371;BME280;14306;49.942;11.570;2022-07-06T08:15:45;98086.13;;;35.21;22.13
1371;BME280;14306;49.942;11.570;2022-07-06T08:18:14;98087.22;;;33.84;22.67
1371;BME280;14306;49.942;11.570;2022-07-06T08:20:42;98088.59;;;35.82;21.22
1371;BME280;14306;49.942;11.570;2022-07-06T08:23:31;98089.19;;;35.39;21.13
1371;BME280;14306;49.942;11.570;2022-07-06T08:26:01;98096.16;;;35.22;21.09
1371;BME280;14306;49.942;11.570;2022-07-06T08:28:29;98085.63;;;34.85;21.95
1371;BME280;14306;49.942;11.570;2022-07-06T08:30:57;98085.84;;;36.59;20.29
1371;BME280;14306;49.942;11.570;2022-07-06T08:33:26;98090.44;;;36.10;20.35
1371;BME280;14306;49.942;11.570;2022-07-06T08:35:54;98087.81;;;36.15;19.54
1371;BME280;14306;49.942;11.570;2022-07-06T08:38:22;98093.53;;;38.29;18.22
1371;BME280;14306;49.942;11.570;2022-07-06T08:40:50;98095.28;;;33.98;21.79
1371;BME280;14306;49.942;11.570;2022-07-06T08:43:19;98100.63;;;36.07;20.09
1371;BME280;14306;49.942;11.570;2022-07-06T08:45:49;98085.97;;;38.71;18.35
1371;BME280;14306;49.942;11.570;2022-07-06T08:48:19;98088.31;;;37.52;19.05
1371;BME280;14306;49.942;11.570;2022-07-06T08:50:51;98087.50;;;38.99;17.91
1371;BME280;14306;49.942;11.570;2022-07-06T08:53:20;98082.13;;;37.93;18.44
1371;BME280;14306;49.942;11.570;2022-07-06T08:55:50;98075.00;;;37.61;19.29
1371;BME280;14306;49.942;11.570;2022-07-06T08:58:18;98090.69;;;34.20;22.04
1371;BME280;14306;49.942;11.570;2022-07-06T09:00:46;98089.00;;;33.27;23.52
1371;BME280;14306;49.942;11.570;2022-07-06T09:03:15;98090.63;;;34.93;22.31
1371;BME280;14306;49.942;11.570;2022-07-06T09:05:45;98079.94;;;36.10;20.54
1371;BME280;14306;49.942;11.570;2022-07-06T09:08:22;98077.41;;;39.07;18.67
1371;BME280;14306;49.942;11.570;2022-07-06T09:10:52;98085.16;;;39.72;17.34
1371;BME280;14306;49.942;11.570;2022-07-06T09:13:21;98079.31;;;40.08;17.28
1371;BME280;14306;49.942;11.570;2022-07-06T09:15:50;98070.47;;;42.49;15.16
1371;BME280;14306;49.942;11.570;2022-07-06T09:18:36;98086.59;;;36.16;19.97
1371;BME280;14306;49.942;11.570;2022-07-06T09:21:04;98086.22;;;32.52;23.55
1371;BME280;14306;49.942;11.570;2022-07-06T09:23:35;98077.97;;;33.36;23.74
1371;BME280;14306;49.942;11.570;2022-07-06T09:26:04;98088.28;;;33.58;22.50
1371;BME280;14306;49.942;11.570;2022-07-06T09:28:42;98071.59;;;33.16;23.34
1371;BME280;14306;49.942;11.570;2022-07-06T09:31:10;98076.06;;;34.95;20.79
1371;BME280;14306;49.942;11.570;2022-07-06T09:33:53;98075.66;;;37.35;19.48
1371;BME280;14306;49.942;11.570;2022-07-06T09:36:42;98076.19;;;37.51;19.05
1371;BME280;14306;49.942;11.570;2022-07-06T09:39:19;98071.59;;;39.02;17.77
1371;BME280;14306;49.942;11.570;2022-07-06T09:41:49;98075.69;;;37.44;18.64
1371;BME280;14306;49.942;11.570;2022-07-06T09:46:15;98085.56;;;35.26;20.82
1371;BME280;14306;49.942;11.570;2022-07-06T09:48:45;98068.38;;;37.25;19.18
1371;BME280;14306;49.942;11.570;2022-07-06T09:51:15;98071.03;;;35.27;20.80
1371;BME280;14306;49.942;11.570;2022-07-06T09:53:51;98088.31;;;31.82;24.40
1371;BME280;14306;49.942;11.570;2022-07-06T09:56:20;98094.66;;;29.18;27.08
1371;BME280;14306;49.942;11.570;2022-07-06T09:58:50;98089.09;;;28.25;28.77
1371;BME280;14306;49.942;11.570;2022-07-06T10:01:30;98095.94;;;27.61;29.90
1371;BME280;14306;49.942;11.570;2022-07-06T10:03:58;98093.97;;;27.44;29.84
1371;BME280;14306;49.942;11.570;2022-07-06T10:06:27;98089.97;;;27.27;30.21
1371;BME280;14306;49.942;11.570;2022-07-06T10:08:57;98076.72;;;29.67;28.09
1371;BME280;14306;49.942;11.570;2022-07-06T10:11:28;98071.13;;;32.03;23.99
1371;BME280;14306;49.942;11.570;2022-07-06T10:13:57;98067.34;;;32.72;23.25
1371;BME280;14306;49.942;11.570;2022-07-06T10:16:25;98064.28;;;33.02;23.08
1371;BME280;14306;49.942;11.570;2022-07-06T10:18:55;98068.91;;;32.73;23.89
1371;BME280;14306;49.942;11.570;2022-07-06T10:21:24;98070.91;;;35.18;20.96
1371;BME280;14306;49.942;11.570;2022-07-06T10:23:53;98071.84;;;33.41;21.70
1371;BME280;14306;49.942;11.570;2022-07-06T10:26:23;98076.91;;;31.93;23.74
1371;BME280;14306;49.942;11.570;2022-07-06T10:28:52;98077.97;;;30.40;25.29
1371;BME280;14306;49.942;11.570;2022-07-06T10:31:23;98073.53;;;28.34;28.44
1371;BME280;14306;49.942;11.570;2022-07-06T10:33:52;98075.66;;;29.50;26.55
1371;BME280;14306;49.942;11.570;2022-07-06T10:36:23;98073.97;;;30.41;25.75
1371;BME280;14306;49.942;11.570;2022-07-06T10:38:53;98066.06;;;30.96;24.94
1371;BME280;14306;49.942;11.570;2022-07-06T10:41:31;98058.91;;;33.27;21.71
1371;BME280;14306;49.942;11.570;2022-07-06T10:44:14;98048.56;;;35.24;20.66
1371;BME280;14306;49.942;11.570;2022-07-06T10:46:50;98059.63;;;37.32;18.29
1371;BME280;14306;49.942;11.570;2022-07-06T10:49:20;98067.09;;;36.43;18.46
1371;BME280;14306;49.942;11.570;2022-07-06T10:52:09;98071.81;;;33.89;21.06
1371;BME280;14306;49.942;11.570;2022-07-06T10:54:39;98066.13;;;30.29;25.83
1371;BME280;14306;49.942;11.570;2022-07-06T10:57:10;98071.94;;;28.30;27.68
1371;BME280;14306;49.942;11.570;2022-07-06T11:00:00;98065.84;;;26.39;31.31
1371;BME280;14306;49.942;11.570;2022-07-06T11:02:37;98071.19;;;25.97;31.75
1371;BME280;14306;49.942;11.570;2022-07-06T11:05:10;98067.63;;;26.92;30.85
1371;BME280;14306;49.942;11.570;2022-07-06T11:08:22;98066.34;;;29.16;27.99
1371;BME280;14306;49.942;11.570;2022-07-06T11:10:51;98062.16;;;29.86;26.75
1371;BME280;14306;49.942;11.570;2022-07-06T11:13:26;98059.78;;;29.84;26.54
1371;BME280;14306;49.942;11.570;2022-07-06T11:16:01;98064.91;;;29.49;27.83
1371;BME280;14306;49.942;11.570;2022-07-06T11:18:38;98042.56;;;32.87;24.03
1371;BME280;14306;49.942;11.570;2022-07-06T11:21:17;98045.78;;;34.58;21.63
1371;BME280;14306;49.942;11.570;2022-07-06T11:23:48;98045.28;;;35.25;20.81
1371;BME280;14306;49.942;11.570;2022-07-06T11:26:17;98034.41;;;35.87;18.80
1371;BME280;14306;49.942;11.570;2022-07-06T11:28:46;98045.94;;;32.98;21.07
1371;BME280;14306;49.942;11.570;2022-07-06T11:31:16;98045.66;;;29.61;25.31
1371;BME280;14306;49.942;11.570;2022-07-06T11:33:47;98064.00;;;28.18;28.25
1371;BME280;14306;49.942;11.570;2022-07-06T11:36:17;98065.88;;;26.42;31.73
1371;BME280;14306;49.942;11.570;2022-07-06T11:38:48;98062.94;;;27.24;30.75
1371;BME280;14306;49.942;11.570;2022-07-06T11:41:18;98056.91;;;27.05;30.96
1371;BME280;14306;49.942;11.570;2022-07-06T11:43:47;98056.44;;;26.71;30.91
1371;BME280;14306;49.942;11.570;2022-07-06T11:46:22;98062.59;;;26.23;31.49
1371;BME280;14306;49.942;11.570;2022-07-06T11:48:52;98053.28;;;26.73;30.45
1371;BME280;14306;49.942;11.570;2022-07-06T11:51:22;98045.00;;;28.85;27.92
1371;BME280;14306;49.942;11.570;2022-07-06T11:53:53;98040.84;;;30.69;25.05
1371;BME280;14306;49.942;11.570;2022-07-06T11:56:23;98050.63;;;31.60;23.12
1371;BME280;14306;49.942;11.570;2022-07-06T11:58:55;98055.50;;;30.80;24.05
1371;BME280;14306;49.942;11.570;2022-07-06T12:01:24;98046.16;;;28.91;25.67
1371;BME280;14306;49.942;11.570;2022-07-06T12:03:58;98053.22;;;29.13;24.86
1371;BME280;14306;49.942;11.570;2022-07-06T12:06:27;98050.31;;;30.49;24.04
1371;BME280;14306;49.942;11.570;2022-07-06T12:08:59;98040.22;;;30.85;23.64
1371;BME280;14306;49.942;11.570;2022-07-06T12:11:32;98047.75;;;30.61;23.33
1371;BME280;14306;49.942;11.570;2022-07-06T12:14:02;98049.47;;;30.52;24.01
1371;BME280;14306;49.942;11.570;2022-07-06T12:16:31;98036.59;;;30.88;23.29
1371;BME280;14306;49.942;11.570;2022-07-06T12:19:02;98031.63;;;31.25;22.44
1371;BME280;14306;49.942;11.570;2022-07-06T12:21:34;98028.06;;;31.71;21.67
1371;BME280;14306;49.942;11.570;2022-07-06T12:24:06;98020.47;;;31.22;21.57
1371;BME280;14306;49.942;11.570;2022-07-06T12:26:39;98023.97;;;31.52;22.31
1371;BME280;14306;49.942;11.570;2022-07-06T12:29:09;98035.53;;;30.11;23.48
1371;BME280;14306;49.942;11.570;2022-07-06T12:31:42;98026.56;;;29.05;24.96
1371;BME280;14306;49.942;11.570;2022-07-06T12:34:15;98033.69;;;28.37;26.18
1371;BME280;14306;49.942;11.570;2022-07-06T12:36:44;98036.22;;;27.93;26.57
1371;BME280;14306;49.942;11.570;2022-07-06T12:39:14;98036.44;;;28.48;25.80
1371;BME280;14306;49.942;11.570;2022-07-06T12:41:47;98032.09;;;28.33;25.66
1371;BME280;14306;49.942;11.570;2022-07-06T12:44:16;98033.63;;;28.55;25.03
1371;BME280;14306;49.942;11.570;2022-07-06T12:46:45;98033.44;;;27.86;26.14
1371;BME280;14306;49.942;11.570;2022-07-06T12:49:16;98037.47;;;27.29;26.67
1371;BME280;14306;49.942;11.570;2022-07-06T12:51:56;98023.72;;;28.36;26.17
1371;BME280;14306;49.942;11.570;2022-07-06T12:54:29;98019.94;;;28.74;24.69
1371;BME280;14306;49.942;11.570;2022-07-06T12:57:06;98024.59;;;29.02;25.58
1371;BME280;14306;49.942;11.570;2022-07-06T12:59:37;98021.25;;;29.21;25.34
1371;BME280;14306;49.942;11.570;2022-07-06T13:02:07;98006.41;;;28.76;25.30
1371;BME280;14306;49.942;11.570;2022-07-06T13:04:43;98008.13;;;28.56;25.23
1371;BME280;14306;49.942;11.570;2022-07-06T13:07:18;98011.09;;;28.11;26.05
1371;BME280;14306;49.942;11.570;2022-07-06T13:09:48;98012.09;;;28.55;25.63
1371;BME280;14306;49.942;11.570;2022-07-06T13:12:16;98002.03;;;28.75;25.79
1371;BME280;14306;49.942;11.570;2022-07-06T13:14:45;98001.66;;;28.70;24.02
1371;BME280;14306;49.942;11.570;2022-07-06T13:17:13;98000.50;;;28.64;24.85
1371;BME280;14306;49.942;11.570;2022-07-06T13:19:41;98005.53;;;28.07;26.15
1371;BME280;14306;49.942;11.570;2022-07-06T13:22:09;98004.31;;;28.12;26.37
1371;BME280;14306;49.942;11.570;2022-07-06T13:24:37;97996.34;;;28.14;25.46
1371;BME280;14306;49.942;11.570;2022-07-06T13:27:07;97998.31;;;28.20;25.42
1371;BME280;14306;49.942;11.570;2022-07-06T13:29:35;98000.44;;;27.74;26.39